createdAt,value
2024-01-24T00:02:17.367Z,-0.00
2024-01-24T00:05:05.627Z,-0.06
2024-01-24T00:07:56.309Z,-0.06
2024-01-24T00:10:53.421Z,-0.09
2024-01-24T00:13:42.141Z,-0.11
2024-01-24T00:16:50.854Z,-0.10
2024-01-24T00:20:04.980Z,-0.12
2024-01-24T00:23:12.619Z,-0.13
2024-01-24T00:26:04.644Z,-0.11
2024-01-24T00:28:51.954Z,-0.11
2024-01-24T00:31:50.112Z,-0.15
2024-01-24T00:34:57.572Z,-0.17
2024-01-24T00:37:49.682Z,-0.17
2024-01-24T00:40:19.669Z,-0.18
2024-01-24T00:43:34.009Z,-0.20
2024-01-24T00:46:15.097Z,-0.25
2024-01-24T00:49:05.140Z,-0.30
2024-01-24T00:52:30.965Z,-0.35
2024-01-24T00:55:31.654Z,-0.39
2024-01-24T00:58:19.542Z,-0.41
2024-01-24T01:00:50.603Z,-0.44
2024-01-24T01:03:40.168Z,-0.48
2024-01-24T01:06:28.405Z,-0.54
2024-01-24T01:08:57.674Z,-0.64
2024-01-24T01:11:45.426Z,-0.71
2024-01-24T01:14:12.923Z,-0.75
2024-01-24T01:16:44.599Z,-0.77
2024-01-24T01:19:13.720Z,-0.81
2024-01-24T01:21:42.437Z,-0.84
2024-01-24T01:24:11.472Z,-0.84
2024-01-24T01:26:38.888Z,-0.86
2024-01-24T01:29:10.914Z,-0.90
2024-01-24T01:31:38.331Z,-0.93
2024-01-24T01:34:05.777Z,-1.00
2024-01-24T01:36:33.499Z,-1.03
2024-01-24T01:39:00.997Z,-1.05
2024-01-24T01:41:28.919Z,-1.07
2024-01-24T01:43:56.331Z,-1.09
2024-01-24T01:46:27.388Z,-1.07
2024-01-24T01:48:58.488Z,-1.08
2024-01-24T01:51:28.259Z,-1.09
2024-01-24T01:53:57.450Z,-1.11
2024-01-24T01:56:26.653Z,-1.14
2024-01-24T01:58:54.704Z,-1.14
2024-01-24T02:04:18.441Z,-1.18
2024-01-24T02:06:46.178Z,-1.17
2024-01-24T02:09:13.808Z,-1.14
2024-01-24T02:11:45.326Z,-1.12
2024-01-24T02:14:13.952Z,-1.12
2024-01-24T02:16:41.552Z,-1.12
2024-01-24T02:19:09.114Z,-1.13
2024-01-24T02:21:37.652Z,-1.12
2024-01-24T02:24:13.913Z,-1.12
2024-01-24T02:26:41.049Z,-1.13
2024-01-24T02:29:08.283Z,-1.17
2024-01-24T02:31:35.836Z,-1.13
2024-01-24T02:34:03.519Z,-1.09
2024-01-24T02:36:30.918Z,-1.08
2024-01-24T02:38:58.999Z,-1.07
2024-01-24T02:41:26.674Z,-1.06
2024-01-24T02:43:54.010Z,-1.05
2024-01-24T02:46:21.399Z,-1.04
2024-01-24T02:48:48.642Z,-1.02
2024-01-24T02:51:27.954Z,-1.04
2024-01-24T02:53:55.398Z,-1.06
2024-01-24T02:56:22.917Z,-1.09
2024-01-24T02:58:50.386Z,-1.10
2024-01-24T03:01:17.912Z,-1.10
2024-01-24T03:03:46.051Z,-1.08
2024-01-24T03:06:13.521Z,-1.09
2024-01-24T03:08:58.885Z,-1.08
2024-01-24T03:11:26.600Z,-1.09
2024-01-24T03:13:53.898Z,-1.10
2024-01-24T03:16:21.309Z,-1.12
2024-01-24T03:18:49.685Z,-1.13
2024-01-24T03:21:19.228Z,-1.14
2024-01-24T03:23:46.533Z,-1.13
2024-01-24T03:26:16.925Z,-1.12
2024-01-24T03:28:44.523Z,-1.10
2024-01-24T03:31:12.156Z,-1.07
2024-01-24T03:33:39.407Z,-1.01
2024-01-24T03:36:06.836Z,-0.95
2024-01-24T03:38:34.788Z,-0.88
2024-01-24T03:41:02.288Z,-0.79
2024-01-24T03:43:29.590Z,-0.68
2024-01-24T03:45:57.216Z,-0.59
2024-01-24T03:48:24.899Z,-0.55
2024-01-24T03:50:53.438Z,-0.52
2024-01-24T03:53:20.787Z,-0.50
2024-01-24T03:55:48.061Z,-0.49
2024-01-24T03:58:15.619Z,-0.47
2024-01-24T04:00:42.998Z,-0.44
2024-01-24T04:03:10.392Z,-0.41
2024-01-24T04:05:37.715Z,-0.39
2024-01-24T04:08:05.465Z,-0.38
2024-01-24T04:10:33.048Z,-0.33
2024-01-24T04:13:00.268Z,-0.28
2024-01-24T04:15:28.729Z,-0.26
2024-01-24T04:17:56.915Z,-0.24
2024-01-24T04:20:24.244Z,-0.21
2024-01-24T04:22:51.403Z,-0.18
2024-01-24T04:25:19.375Z,-0.15
2024-01-24T04:27:49.608Z,-0.13
2024-01-24T04:30:17.226Z,-0.12
2024-01-24T04:32:45.401Z,-0.09
2024-01-24T04:35:13.551Z,-0.08
2024-01-24T04:37:41.376Z,-0.06
2024-01-24T04:40:09.431Z,-0.04
2024-01-24T04:42:37.180Z,-0.01
2024-01-24T04:45:04.743Z,0.02
2024-01-24T04:47:32.313Z,0.04
2024-01-24T04:50:00.007Z,0.05
2024-01-24T04:52:27.228Z,0.09
2024-01-24T04:54:54.524Z,0.12
2024-01-24T04:57:21.761Z,0.16
2024-01-24T04:59:55.749Z,0.24
2024-01-24T05:02:24.833Z,0.27
2024-01-24T05:04:52.165Z,0.32
2024-01-24T05:07:19.658Z,0.34
2024-01-24T05:09:47.113Z,0.36
2024-01-24T05:12:14.676Z,0.39
2024-01-24T05:14:42.084Z,0.40
2024-01-24T05:17:09.295Z,0.42
2024-01-24T05:19:37.274Z,0.44
2024-01-24T05:22:04.724Z,0.47
2024-01-24T05:24:32.107Z,0.52
2024-01-24T05:26:59.405Z,0.59
2024-01-24T05:29:27.136Z,0.66
2024-01-24T05:31:54.670Z,0.73
2024-01-24T05:34:21.816Z,0.76
2024-01-24T05:37:04.286Z,0.78
2024-01-24T05:39:32.425Z,0.83
2024-01-24T05:42:01.204Z,0.84
2024-01-24T05:44:32.730Z,0.85
2024-01-24T05:47:00.689Z,0.86
2024-01-24T05:49:31.398Z,0.90
2024-01-24T05:52:10.301Z,0.95
2024-01-24T05:54:57.804Z,1.00
2024-01-24T05:57:26.397Z,1.04
2024-01-24T05:59:53.741Z,1.05
2024-01-24T06:02:21.422Z,1.10
2024-01-24T06:04:49.959Z,1.13
2024-01-24T06:07:20.752Z,1.14
2024-01-24T08:04:34.847Z,2.08
2024-01-24T08:08:43.909Z,2.07
2024-01-24T08:12:38.010Z,2.11
2024-01-24T08:17:00.754Z,2.20
2024-01-24T08:24:20.605Z,2.23
2024-01-24T08:28:12.582Z,2.29
2024-01-24T08:32:03.282Z,2.32
2024-01-24T08:35:53.182Z,2.35
2024-01-24T08:39:41.088Z,2.39
2024-01-24T08:43:28.831Z,2.43
2024-01-24T08:47:16.565Z,2.49
2024-01-24T08:51:04.271Z,2.53
2024-01-24T08:54:55.034Z,2.55
2024-01-24T08:58:42.868Z,2.62
2024-01-24T09:01:53.328Z,2.67
2024-01-24T09:05:43.470Z,2.70
2024-01-24T09:09:40.959Z,2.72
2024-01-24T09:13:33.383Z,2.76
2024-01-24T09:17:22.018Z,2.79
2024-01-24T09:21:11.522Z,2.83
2024-01-24T09:24:59.577Z,2.88
2024-01-24T09:28:47.065Z,2.93
2024-01-24T09:32:34.962Z,2.97
2024-01-24T09:36:22.750Z,3.03
2024-01-24T09:40:12.084Z,3.05
2024-01-24T09:43:59.760Z,3.10
2024-01-24T09:47:47.794Z,3.17
2024-01-24T09:51:36.343Z,3.20
2024-01-24T09:55:25.630Z,3.29
2024-01-24T09:59:13.437Z,3.40
2024-01-24T10:03:01.365Z,3.49
2024-01-24T10:06:52.186Z,3.58
2024-01-24T10:10:42.605Z,3.68
2024-01-24T10:14:32.601Z,3.79
2024-01-24T10:18:23.378Z,3.82
2024-01-24T10:22:11.421Z,3.90
2024-01-24T10:26:00.218Z,3.97
2024-01-24T10:29:48.105Z,4.01
2024-01-24T10:33:36.167Z,4.08
2024-01-24T10:37:25.566Z,4.07
2024-01-24T10:41:16.101Z,4.15
2024-01-24T10:45:09.656Z,4.23
2024-01-24T10:48:58.411Z,4.33
2024-01-24T10:52:47.535Z,4.38
2024-01-24T10:56:35.076Z,4.44
2024-01-24T11:00:26.946Z,4.45
2024-01-24T11:04:14.719Z,4.50
2024-01-24T11:08:05.376Z,4.56
2024-01-24T11:11:53.864Z,4.61
2024-01-24T11:15:44.875Z,4.70
2024-01-24T11:19:35.420Z,4.72
2024-01-24T11:23:23.272Z,4.78
2024-01-24T11:27:12.924Z,4.86
2024-01-24T11:30:40.822Z,4.92
2024-01-24T11:34:27.751Z,4.99
2024-01-24T11:38:26.158Z,5.03
2024-01-24T11:42:12.349Z,5.09
2024-01-24T11:46:18.544Z,5.12
2024-01-24T11:50:11.113Z,5.17
2024-01-24T11:54:02.027Z,5.17
2024-01-24T11:57:50.106Z,5.22
2024-01-24T12:01:02.394Z,5.20
2024-01-24T12:04:51.279Z,5.23
2024-01-24T12:08:39.111Z,5.24
2024-01-24T12:12:28.347Z,5.35
2024-01-24T12:16:16.059Z,5.48
2024-01-24T12:20:04.426Z,5.59
2024-01-24T12:23:55.301Z,5.68
2024-01-24T12:27:43.269Z,5.67
2024-01-24T12:31:32.377Z,5.72
2024-01-24T12:35:23.962Z,5.79
2024-01-24T12:39:10.531Z,5.82
2024-01-24T12:42:58.400Z,5.86
2024-01-24T12:46:48.899Z,5.92
2024-01-24T12:50:36.736Z,5.95
2024-01-24T12:54:24.324Z,5.95
2024-01-24T12:58:12.292Z,5.93
2024-01-24T13:01:59.984Z,5.93
2024-01-24T13:05:51.203Z,5.95
2024-01-24T13:09:40.112Z,6.00
2024-01-24T13:13:24.376Z,6.02
2024-01-24T13:17:12.108Z,6.05
2024-01-24T13:21:00.259Z,6.04
2024-01-24T13:24:53.773Z,6.01
2024-01-24T13:28:38.052Z,5.98
2024-01-24T13:32:28.051Z,5.94
2024-01-24T13:36:17.025Z,5.93
2024-01-24T13:40:05.095Z,6.00
2024-01-24T13:43:54.737Z,5.99
2024-01-24T13:47:22.073Z,5.95
2024-01-24T13:51:09.952Z,5.91
2024-01-24T13:54:57.688Z,5.90
2024-01-24T13:58:47.149Z,5.94
2024-01-24T14:06:21.803Z,5.94
2024-01-24T14:10:09.728Z,5.91
2024-01-24T14:13:57.308Z,5.89
2024-01-24T14:17:45.070Z,5.86
2024-01-24T14:21:32.828Z,5.84
2024-01-24T14:25:20.594Z,5.83
2024-01-24T14:29:08.252Z,5.78
2024-01-24T14:32:56.578Z,5.74
2024-01-24T14:36:49.697Z,5.68
2024-01-24T14:40:38.034Z,5.64
2024-01-24T14:44:25.532Z,5.64
2024-01-24T14:48:13.485Z,5.65
2024-01-24T14:52:03.990Z,5.66
2024-01-24T14:55:51.678Z,5.61
2024-01-24T14:59:42.937Z,5.59
2024-01-24T15:03:30.928Z,5.56
2024-01-24T15:07:18.476Z,5.55
2024-01-24T15:11:06.289Z,5.52
2024-01-24T15:14:53.899Z,5.48
2024-01-24T15:18:41.709Z,5.45
2024-01-24T15:22:30.564Z,5.42
2024-01-24T15:26:18.343Z,5.35
2024-01-24T15:30:07.274Z,5.29
2024-01-24T15:33:54.595Z,5.23
2024-01-24T15:37:42.264Z,5.17
2024-01-24T15:41:30.479Z,5.13
2024-01-24T15:45:18.116Z,5.06
2024-01-24T15:49:06.576Z,5.00
2024-01-24T15:52:54.454Z,4.98
2024-01-24T15:56:44.990Z,4.98
2024-01-24T16:00:33.531Z,4.97
2024-01-24T16:04:20.699Z,4.96
2024-01-24T16:08:08.318Z,4.95
2024-01-24T16:11:57.409Z,4.89
2024-01-24T16:15:46.369Z,4.87
2024-01-24T16:19:34.460Z,4.83
2024-01-24T16:23:21.879Z,4.80
2024-01-24T16:27:09.947Z,4.79
2024-01-24T16:34:42.494Z,4.76
2024-01-24T16:38:30.206Z,4.74
2024-01-24T16:42:18.142Z,4.76
2024-01-24T16:46:06.700Z,4.81
2024-01-24T16:49:54.485Z,4.84
2024-01-24T16:53:41.999Z,4.87
2024-01-24T16:57:29.802Z,4.91
2024-01-24T17:01:17.633Z,4.90
2024-01-24T17:05:05.130Z,4.93
2024-01-24T17:08:52.655Z,4.90
2024-01-24T17:12:40.350Z,4.88
2024-01-24T17:16:28.449Z,4.85
2024-01-24T17:20:16.520Z,4.86
2024-01-24T17:24:04.776Z,4.90
2024-01-24T17:27:52.752Z,4.96
2024-01-24T17:31:40.687Z,5.00
2024-01-24T17:35:28.560Z,5.04
2024-01-24T17:39:18.962Z,5.07
2024-01-24T17:43:07.343Z,5.10
2024-01-24T17:46:55.080Z,5.13
2024-01-24T17:50:43.373Z,5.19
2024-01-24T17:54:35.223Z,5.23
2024-01-24T17:58:22.632Z,5.28
2024-01-24T18:02:10.520Z,5.32
2024-01-24T18:05:58.782Z,5.37
2024-01-24T18:09:46.681Z,5.41
2024-01-24T18:13:34.737Z,5.47
2024-01-24T18:17:23.812Z,5.54
2024-01-24T18:20:13.861Z,5.51
2024-01-24T18:22:45.358Z,5.52
2024-01-24T18:25:33.388Z,5.50
2024-01-24T18:28:00.819Z,5.46
2024-01-24T18:30:34.687Z,5.45
2024-01-24T18:33:20.565Z,5.42
2024-01-24T18:36:11.172Z,5.35
2024-01-24T18:38:54.219Z,5.36
2024-01-24T18:42:41.483Z,5.40
2024-01-24T18:46:29.230Z,5.42
2024-01-24T18:50:19.612Z,5.45
2024-01-24T18:54:07.168Z,5.46
2024-01-24T18:57:58.051Z,5.50
2024-01-24T19:01:48.657Z,5.51
2024-01-24T19:05:38.671Z,5.52
2024-01-24T19:09:23.564Z,5.55
2024-01-24T19:12:51.914Z,5.56
2024-01-24T19:16:38.858Z,5.58
2024-01-24T19:20:29.374Z,5.53
2024-01-24T19:24:18.685Z,5.51
2024-01-24T19:28:06.984Z,5.46
2024-01-24T19:31:55.820Z,5.40
2024-01-24T19:35:53.519Z,5.36
2024-01-24T19:39:41.377Z,5.33
2024-01-24T19:43:32.075Z,5.42
2024-01-24T19:47:19.991Z,5.46
2024-01-24T19:51:09.258Z,5.45
2024-01-24T19:54:56.961Z,5.47
2024-01-24T19:58:44.954Z,5.46
2024-01-24T20:02:32.615Z,5.45
2024-01-24T20:06:20.878Z,5.44
2024-01-24T20:10:09.689Z,5.46
2024-01-24T20:13:57.605Z,5.47
2024-01-24T20:17:45.634Z,5.48
2024-01-24T20:21:33.873Z,5.46
2024-01-24T20:25:24.489Z,5.48
2024-01-24T20:29:11.843Z,5.48
2024-01-24T20:33:04.145Z,5.47
2024-01-24T20:40:38.946Z,5.50
2024-01-24T20:44:27.335Z,5.52
2024-01-24T20:48:16.583Z,5.58
2024-01-24T20:55:49.352Z,5.55
2024-01-24T20:59:37.227Z,5.53
2024-01-24T21:03:25.855Z,5.54
2024-01-24T21:07:14.479Z,5.56
2024-01-24T21:11:04.135Z,5.52
2024-01-24T21:14:50.312Z,5.53
2024-01-24T21:18:39.075Z,5.53
2024-01-24T21:22:26.275Z,5.54
2024-01-24T21:30:01.952Z,5.51
2024-01-24T21:33:49.530Z,5.50
2024-01-24T21:37:38.595Z,5.53
2024-01-24T21:41:26.334Z,5.49
2024-01-24T21:45:08.956Z,5.44
2024-01-24T21:47:37.677Z,5.38
2024-01-24T21:50:07.574Z,5.37
2024-01-24T21:52:35.183Z,5.34
2024-01-24T21:55:03.089Z,5.33
2024-01-24T21:57:53.781Z,5.32
2024-01-24T22:00:21.392Z,5.30
2024-01-24T22:02:53.943Z,5.30
2024-01-24T22:05:22.925Z,5.30
2024-01-24T22:07:51.578Z,5.29
2024-01-24T22:10:19.106Z,5.29
2024-01-24T22:12:53.651Z,5.28
2024-01-24T22:15:21.288Z,5.26
2024-01-24T22:17:48.492Z,5.29
2024-01-24T22:20:15.997Z,5.30
2024-01-24T22:25:16.523Z,5.27
2024-01-24T22:28:42.481Z,5.29
2024-01-24T22:31:34.626Z,5.27
2024-01-24T22:34:25.326Z,5.25
2024-01-24T22:37:01.038Z,5.25
2024-01-24T22:39:29.622Z,5.26
2024-01-24T22:42:19.938Z,5.28
2024-01-24T22:45:17.311Z,5.30
2024-01-24T22:47:53.993Z,5.30
2024-01-24T22:50:29.451Z,5.31
2024-01-24T22:52:57.136Z,5.35
2024-01-24T22:55:45.029Z,5.37
2024-01-24T22:58:17.367Z,5.40
2024-01-24T23:01:08.599Z,5.41
2024-01-24T23:03:54.194Z,5.43
2024-01-24T23:09:42.005Z,5.39
2024-01-24T23:12:10.612Z,5.39
2024-01-24T23:14:58.210Z,5.39
2024-01-24T23:20:50.950Z,5.39
2024-01-24T23:23:36.924Z,5.41
2024-01-24T23:26:22.830Z,5.42
2024-01-24T23:29:29.906Z,5.43
2024-01-24T23:31:59.010Z,5.43
2024-01-24T23:34:41.610Z,5.42
2024-01-24T23:37:36.510Z,5.43
2024-01-24T23:43:15.068Z,5.43
2024-01-24T23:46:58.847Z,5.44
2024-01-24T23:50:19.204Z,5.40
2024-01-24T23:56:10.651Z,5.37
